sensor_id;sensor_type;location;lat;lon;timestamp;P1;durP1;ratioP1;P2;durP2;ratioP2
13975;SDS011;7062;49.792;9.946;2022-12-24T00:02:21;7.07;;;1.73;;
13975;SDS011;7062;49.792;9.946;2022-12-24T00:04:46;9.03;;;1.67;;
13975;SDS011;7062;49.792;9.946;2022-12-24T00:07:12;4.27;;;1.23;;
13975;SDS011;7062;49.792;9.946;2022-12-24T00:09:38;5.63;;;1.53;;
13975;SDS011;7062;49.792;9.946;2022-12-24T00:12:04;4.83;;;1.80;;
13975;SDS011;7062;49.792;9.946;2022-12-24T00:14:29;7.63;;;1.57;;
13975;SDS011;7062;49.792;9.946;2022-12-24T00:16:55;7.37;;;1.83;;
13975;SDS011;7062;49.792;9.946;2022-12-24T00:19:21;6.17;;;1.43;;
13975;SDS011;7062;49.792;9.946;2022-12-24T00:21:46;5.57;;;1.63;;
13975;SDS011;7062;49.792;9.946;2022-12-24T00:24:12;12.33;;;2.37;;
13975;SDS011;7062;49.792;9.946;2022-12-24T00:26:38;10.47;;;2.20;;
13975;SDS011;7062;49.792;9.946;2022-12-24T00:29:03;7.87;;;2.57;;
13975;SDS011;7062;49.792;9.946;2022-12-24T00:31:30;9.83;;;1.80;;
13975;SDS011;7062;49.792;9.946;2022-12-24T00:33:56;4.37;;;1.57;;
13975;SDS011;7062;49.792;9.946;2022-12-24T00:36:21;7.47;;;1.53;;
13975;SDS011;7062;49.792;9.946;2022-12-24T00:38:47;7.20;;;1.77;;
13975;SDS011;7062;49.792;9.946;2022-12-24T00:41:13;7.90;;;1.67;;
13975;SDS011;7062;49.792;9.946;2022-12-24T00:43:58;5.07;;;1.77;;
13975;SDS011;7062;49.792;9.946;2022-12-24T00:46:26;10.57;;;1.87;;
13975;SDS011;7062;49.792;9.946;2022-12-24T00:48:53;5.83;;;1.63;;
13975;SDS011;7062;49.792;9.946;2022-12-24T00:51:19;6.90;;;1.60;;
13975;SDS011;7062;49.792;9.946;2022-12-24T00:53:45;6.33;;;2.10;;
13975;SDS011;7062;49.792;9.946;2022-12-24T00:56:11;7.30;;;1.93;;
13975;SDS011;7062;49.792;9.946;2022-12-24T00:58:37;7.83;;;1.60;;
13975;SDS011;7062;49.792;9.946;2022-12-24T01:01:03;9.90;;;2.03;;
13975;SDS011;7062;49.792;9.946;2022-12-24T01:03:29;5.03;;;1.23;;
13975;SDS011;7062;49.792;9.946;2022-12-24T01:06:05;9.10;;;1.40;;
13975;SDS011;7062;49.792;9.946;2022-12-24T01:08:35;6.37;;;1.70;;
13975;SDS011;7062;49.792;9.946;2022-12-24T01:11:01;9.67;;;1.73;;
13975;SDS011;7062;49.792;9.946;2022-12-24T01:13:28;10.23;;;1.90;;
13975;SDS011;7062;49.792;9.946;2022-12-24T01:15:54;7.97;;;1.20;;
13975;SDS011;7062;49.792;9.946;2022-12-24T01:18:20;8.13;;;1.63;;
13975;SDS011;7062;49.792;9.946;2022-12-24T01:20:53;9.13;;;3.10;;
13975;SDS011;7062;49.792;9.946;2022-12-24T01:23:26;6.40;;;2.03;;
13975;SDS011;7062;49.792;9.946;2022-12-24T01:25:53;4.67;;;1.53;;
13975;SDS011;7062;49.792;9.946;2022-12-24T01:28:19;9.73;;;2.50;;
13975;SDS011;7062;49.792;9.946;2022-12-24T01:30:46;7.17;;;1.80;;
13975;SDS011;7062;49.792;9.946;2022-12-24T01:33:12;5.93;;;1.67;;
13975;SDS011;7062;49.792;9.946;2022-12-24T01:35:38;4.97;;;1.20;;
13975;SDS011;7062;49.792;9.946;2022-12-24T01:38:05;8.70;;;2.13;;
13975;SDS011;7062;49.792;9.946;2022-12-24T01:40:31;10.00;;;1.87;;
13975;SDS011;7062;49.792;9.946;2022-12-24T01:43:19;6.27;;;1.50;;
13975;SDS011;7062;49.792;9.946;2022-12-24T01:45:50;8.67;;;1.63;;
13975;SDS011;7062;49.792;9.946;2022-12-24T01:48:33;12.57;;;2.30;;
13975;SDS011;7062;49.792;9.946;2022-12-24T01:53:43;8.77;;;1.53;;
13975;SDS011;7062;49.792;9.946;2022-12-24T01:56:12;5.53;;;1.30;;
13975;SDS011;7062;49.792;9.946;2022-12-24T01:58:39;9.47;;;1.73;;
13975;SDS011;7062;49.792;9.946;2022-12-24T02:01:09;11.97;;;2.37;;
13975;SDS011;7062;49.792;9.946;2022-12-24T02:03:35;6.13;;;1.83;;
13975;SDS011;7062;49.792;9.946;2022-12-24T02:06:00;11.80;;;2.07;;
13975;SDS011;7062;49.792;9.946;2022-12-24T02:08:26;11.30;;;2.43;;
13975;SDS011;7062;49.792;9.946;2022-12-24T02:13:37;7.23;;;1.73;;
13975;SDS011;7062;49.792;9.946;2022-12-24T02:21:39;9.57;;;1.97;;
13975;SDS011;7062;49.792;9.946;2022-12-24T02:24:20;6.30;;;1.70;;
13975;SDS011;7062;49.792;9.946;2022-12-24T02:32:28;6.30;;;1.07;;
13975;SDS011;7062;49.792;9.946;2022-12-24T02:35:20;10.80;;;1.73;;
13975;SDS011;7062;49.792;9.946;2022-12-24T02:38:02;6.07;;;1.33;;
13975;SDS011;7062;49.792;9.946;2022-12-24T02:40:30;9.63;;;1.87;;
13975;SDS011;7062;49.792;9.946;2022-12-24T02:43:02;6.63;;;1.37;;
13975;SDS011;7062;49.792;9.946;2022-12-24T02:45:39;7.77;;;1.50;;
13975;SDS011;7062;49.792;9.946;2022-12-24T02:48:09;8.87;;;1.70;;
13975;SDS011;7062;49.792;9.946;2022-12-24T02:50:37;9.27;;;1.40;;
13975;SDS011;7062;49.792;9.946;2022-12-24T02:53:04;9.03;;;1.57;;
13975;SDS011;7062;49.792;9.946;2022-12-24T03:01:16;12.30;;;1.53;;
13975;SDS011;7062;49.792;9.946;2022-12-24T03:09:32;7.40;;;1.97;;
13975;SDS011;7062;49.792;9.946;2022-12-24T03:12:32;7.17;;;1.43;;
13975;SDS011;7062;49.792;9.946;2022-12-24T03:15:02;9.10;;;1.90;;
13975;SDS011;7062;49.792;9.946;2022-12-24T03:17:30;9.27;;;1.93;;
13975;SDS011;7062;49.792;9.946;2022-12-24T03:20:00;11.70;;;2.27;;
13975;SDS011;7062;49.792;9.946;2022-12-24T03:22:26;11.07;;;1.93;;
13975;SDS011;7062;49.792;9.946;2022-12-24T03:24:52;9.10;;;1.97;;
13975;SDS011;7062;49.792;9.946;2022-12-24T03:27:18;11.13;;;3.07;;
13975;SDS011;7062;49.792;9.946;2022-12-24T03:29:44;7.10;;;1.60;;
13975;SDS011;7062;49.792;9.946;2022-12-24T03:32:10;7.43;;;2.03;;
13975;SDS011;7062;49.792;9.946;2022-12-24T03:34:36;14.33;;;2.00;;
13975;SDS011;7062;49.792;9.946;2022-12-24T03:37:02;8.80;;;1.83;;
13975;SDS011;7062;49.792;9.946;2022-12-24T03:39:28;6.30;;;1.70;;
13975;SDS011;7062;49.792;9.946;2022-12-24T03:41:53;7.33;;;1.93;;
13975;SDS011;7062;49.792;9.946;2022-12-24T03:44:19;3.93;;;1.13;;
13975;SDS011;7062;49.792;9.946;2022-12-24T03:46:45;6.00;;;2.00;;
13975;SDS011;7062;49.792;9.946;2022-12-24T03:49:10;7.03;;;1.50;;
13975;SDS011;7062;49.792;9.946;2022-12-24T03:51:36;8.20;;;2.43;;
13975;SDS011;7062;49.792;9.946;2022-12-24T03:54:01;7.50;;;1.67;;
13975;SDS011;7062;49.792;9.946;2022-12-24T03:56:27;15.70;;;2.13;;
13975;SDS011;7062;49.792;9.946;2022-12-24T03:58:53;6.00;;;1.30;;
13975;SDS011;7062;49.792;9.946;2022-12-24T04:01:18;8.10;;;2.20;;
13975;SDS011;7062;49.792;9.946;2022-12-24T04:03:44;6.33;;;1.50;;
13975;SDS011;7062;49.792;9.946;2022-12-24T04:06:11;8.73;;;1.30;;
13975;SDS011;7062;49.792;9.946;2022-12-24T04:08:38;7.07;;;1.63;;
13975;SDS011;7062;49.792;9.946;2022-12-24T04:11:05;9.40;;;1.70;;
13975;SDS011;7062;49.792;9.946;2022-12-24T04:13:32;7.50;;;1.53;;
13975;SDS011;7062;49.792;9.946;2022-12-24T04:16:05;11.07;;;1.93;;
13975;SDS011;7062;49.792;9.946;2022-12-24T04:18:32;9.43;;;2.30;;
13975;SDS011;7062;49.792;9.946;2022-12-24T04:20:59;5.47;;;1.57;;
13975;SDS011;7062;49.792;9.946;2022-12-24T04:23:24;5.87;;;1.70;;
13975;SDS011;7062;49.792;9.946;2022-12-24T04:25:50;6.70;;;2.03;;
13975;SDS011;7062;49.792;9.946;2022-12-24T04:28:16;8.10;;;1.87;;
13975;SDS011;7062;49.792;9.946;2022-12-24T04:30:42;11.93;;;2.03;;
13975;SDS011;7062;49.792;9.946;2022-12-24T04:33:07;9.77;;;1.60;;
13975;SDS011;7062;49.792;9.946;2022-12-24T04:35:36;10.40;;;1.77;;
13975;SDS011;7062;49.792;9.946;2022-12-24T04:38:04;6.40;;;1.60;;
13975;SDS011;7062;49.792;9.946;2022-12-24T04:40:29;7.07;;;1.50;;
13975;SDS011;7062;49.792;9.946;2022-12-24T04:42:55;3.90;;;1.10;;
13975;SDS011;7062;49.792;9.946;2022-12-24T04:45:21;7.77;;;1.10;;
13975;SDS011;7062;49.792;9.946;2022-12-24T04:47:46;9.33;;;1.43;;
13975;SDS011;7062;49.792;9.946;2022-12-24T04:50:12;6.03;;;2.17;;
13975;SDS011;7062;49.792;9.946;2022-12-24T04:52:37;7.70;;;1.63;;
13975;SDS011;7062;49.792;9.946;2022-12-24T04:55:03;7.13;;;2.13;;
13975;SDS011;7062;49.792;9.946;2022-12-24T04:57:32;9.63;;;1.70;;
13975;SDS011;7062;49.792;9.946;2022-12-24T04:59:59;10.57;;;2.23;;
13975;SDS011;7062;49.792;9.946;2022-12-24T05:02:25;11.83;;;1.90;;
13975;SDS011;7062;49.792;9.946;2022-12-24T05:04:51;10.20;;;2.03;;
13975;SDS011;7062;49.792;9.946;2022-12-24T05:07:17;7.97;;;1.30;;
13975;SDS011;7062;49.792;9.946;2022-12-24T05:09:43;7.73;;;1.47;;
13975;SDS011;7062;49.792;9.946;2022-12-24T05:12:08;14.67;;;2.60;;
13975;SDS011;7062;49.792;9.946;2022-12-24T05:14:34;6.20;;;1.77;;
13975;SDS011;7062;49.792;9.946;2022-12-24T05:16:59;5.90;;;1.50;;
13975;SDS011;7062;49.792;9.946;2022-12-24T05:19:25;7.93;;;2.17;;
13975;SDS011;7062;49.792;9.946;2022-12-24T05:21:51;9.87;;;1.60;;
13975;SDS011;7062;49.792;9.946;2022-12-24T05:24:35;10.27;;;1.70;;
13975;SDS011;7062;49.792;9.946;2022-12-24T05:27:19;9.30;;;1.83;;
13975;SDS011;7062;49.792;9.946;2022-12-24T05:29:45;5.07;;;1.70;;
13975;SDS011;7062;49.792;9.946;2022-12-24T05:32:11;9.50;;;1.80;;
13975;SDS011;7062;49.792;9.946;2022-12-24T05:34:36;7.97;;;1.80;;
13975;SDS011;7062;49.792;9.946;2022-12-24T05:37:02;8.97;;;1.63;;
13975;SDS011;7062;49.792;9.946;2022-12-24T05:39:28;9.43;;;1.90;;
13975;SDS011;7062;49.792;9.946;2022-12-24T05:41:53;5.17;;;1.47;;
13975;SDS011;7062;49.792;9.946;2022-12-24T05:44:19;7.97;;;2.07;;
13975;SDS011;7062;49.792;9.946;2022-12-24T05:46:45;8.80;;;1.83;;
13975;SDS011;7062;49.792;9.946;2022-12-24T05:49:10;6.87;;;1.37;;
13975;SDS011;7062;49.792;9.946;2022-12-24T05:51:36;9.70;;;2.20;;
13975;SDS011;7062;49.792;9.946;2022-12-24T05:54:04;6.50;;;1.63;;
13975;SDS011;7062;49.792;9.946;2022-12-24T05:56:30;8.67;;;2.57;;
13975;SDS011;7062;49.792;9.946;2022-12-24T05:58:56;8.73;;;1.63;;
13975;SDS011;7062;49.792;9.946;2022-12-24T06:01:22;6.27;;;1.90;;
13975;SDS011;7062;49.792;9.946;2022-12-24T06:03:49;6.60;;;1.60;;
13975;SDS011;7062;49.792;9.946;2022-12-24T06:06:16;8.13;;;1.83;;
13975;SDS011;7062;49.792;9.946;2022-12-24T06:08:45;12.63;;;1.93;;
13975;SDS011;7062;49.792;9.946;2022-12-24T06:11:12;7.93;;;2.00;;
13975;SDS011;7062;49.792;9.946;2022-12-24T06:13:39;7.10;;;1.70;;
13975;SDS011;7062;49.792;9.946;2022-12-24T06:16:06;9.27;;;1.37;;
13975;SDS011;7062;49.792;9.946;2022-12-24T06:18:35;5.57;;;2.07;;
13975;SDS011;7062;49.792;9.946;2022-12-24T06:21:02;4.10;;;1.70;;
13975;SDS011;7062;49.792;9.946;2022-12-24T06:23:29;11.80;;;2.17;;
13975;SDS011;7062;49.792;9.946;2022-12-24T06:25:58;15.87;;;2.37;;
13975;SDS011;7062;49.792;9.946;2022-12-24T06:28:28;7.90;;;2.07;;
13975;SDS011;7062;49.792;9.946;2022-12-24T06:30:57;8.20;;;2.47;;
13975;SDS011;7062;49.792;9.946;2022-12-24T06:33:25;6.27;;;1.30;;
13975;SDS011;7062;49.792;9.946;2022-12-24T06:35:50;9.53;;;2.23;;
13975;SDS011;7062;49.792;9.946;2022-12-24T06:38:16;10.40;;;2.10;;
13975;SDS011;7062;49.792;9.946;2022-12-24T06:40:42;5.67;;;1.63;;
13975;SDS011;7062;49.792;9.946;2022-12-24T06:43:09;10.73;;;2.43;;
13975;SDS011;7062;49.792;9.946;2022-12-24T06:45:36;8.63;;;2.03;;
13975;SDS011;7062;49.792;9.946;2022-12-24T06:48:01;10.07;;;1.63;;
13975;SDS011;7062;49.792;9.946;2022-12-24T06:50:27;9.27;;;1.73;;
13975;SDS011;7062;49.792;9.946;2022-12-24T06:52:53;11.50;;;2.27;;
13975;SDS011;7062;49.792;9.946;2022-12-24T06:55:19;11.57;;;1.97;;
13975;SDS011;7062;49.792;9.946;2022-12-24T06:57:44;8.10;;;2.07;;
13975;SDS011;7062;49.792;9.946;2022-12-24T07:00:10;5.33;;;1.90;;
13975;SDS011;7062;49.792;9.946;2022-12-24T07:02:40;5.37;;;1.73;;
13975;SDS011;7062;49.792;9.946;2022-12-24T07:05:08;9.90;;;1.73;;
13975;SDS011;7062;49.792;9.946;2022-12-24T07:07:36;7.50;;;1.97;;
13975;SDS011;7062;49.792;9.946;2022-12-24T07:10:03;6.33;;;2.27;;
13975;SDS011;7062;49.792;9.946;2022-12-24T07:12:30;8.87;;;2.37;;
13975;SDS011;7062;49.792;9.946;2022-12-24T07:14:55;14.77;;;1.80;;
13975;SDS011;7062;49.792;9.946;2022-12-24T07:17:21;6.43;;;1.67;;
13975;SDS011;7062;49.792;9.946;2022-12-24T07:19:47;11.07;;;1.97;;
13975;SDS011;7062;49.792;9.946;2022-12-24T07:22:12;10.53;;;2.07;;
13975;SDS011;7062;49.792;9.946;2022-12-24T07:24:38;6.17;;;1.97;;
13975;SDS011;7062;49.792;9.946;2022-12-24T07:27:04;11.27;;;2.27;;
13975;SDS011;7062;49.792;9.946;2022-12-24T07:29:29;9.30;;;1.77;;
13975;SDS011;7062;49.792;9.946;2022-12-24T07:31:55;6.43;;;1.80;;
13975;SDS011;7062;49.792;9.946;2022-12-24T07:34:21;7.67;;;1.97;;
13975;SDS011;7062;49.792;9.946;2022-12-24T07:36:46;11.37;;;2.40;;
13975;SDS011;7062;49.792;9.946;2022-12-24T07:39:12;9.30;;;2.93;;
13975;SDS011;7062;49.792;9.946;2022-12-24T07:41:37;7.67;;;1.80;;
13975;SDS011;7062;49.792;9.946;2022-12-24T07:44:03;11.17;;;1.73;;
13975;SDS011;7062;49.792;9.946;2022-12-24T07:46:29;11.67;;;2.77;;
13975;SDS011;7062;49.792;9.946;2022-12-24T07:48:54;9.33;;;1.80;;
13975;SDS011;7062;49.792;9.946;2022-12-24T07:51:20;9.90;;;2.93;;
13975;SDS011;7062;49.792;9.946;2022-12-24T07:53:45;11.77;;;2.50;;
13975;SDS011;7062;49.792;9.946;2022-12-24T07:56:15;14.33;;;2.40;;
13975;SDS011;7062;49.792;9.946;2022-12-24T07:58:41;10.33;;;2.33;;
13975;SDS011;7062;49.792;9.946;2022-12-24T08:01:07;15.47;;;3.60;;
13975;SDS011;7062;49.792;9.946;2022-12-24T08:03:33;7.90;;;2.20;;
13975;SDS011;7062;49.792;9.946;2022-12-24T08:05:59;14.93;;;2.87;;
13975;SDS011;7062;49.792;9.946;2022-12-24T08:08:25;13.70;;;2.17;;
13975;SDS011;7062;49.792;9.946;2022-12-24T08:10:51;5.87;;;2.03;;
13975;SDS011;7062;49.792;9.946;2022-12-24T08:13:17;12.87;;;2.43;;
13975;SDS011;7062;49.792;9.946;2022-12-24T08:15:42;10.17;;;2.50;;
13975;SDS011;7062;49.792;9.946;2022-12-24T08:18:09;12.33;;;2.73;;
13975;SDS011;7062;49.792;9.946;2022-12-24T08:20:39;13.20;;;2.77;;
13975;SDS011;7062;49.792;9.946;2022-12-24T08:23:05;11.63;;;2.60;;
13975;SDS011;7062;49.792;9.946;2022-12-24T08:25:32;10.10;;;2.40;;
13975;SDS011;7062;49.792;9.946;2022-12-24T08:27:57;12.83;;;3.90;;
13975;SDS011;7062;49.792;9.946;2022-12-24T08:30:23;9.37;;;2.57;;
13975;SDS011;7062;49.792;9.946;2022-12-24T08:32:49;18.00;;;2.47;;
13975;SDS011;7062;49.792;9.946;2022-12-24T08:35:14;15.57;;;2.90;;
13975;SDS011;7062;49.792;9.946;2022-12-24T08:37:40;8.43;;;2.20;;
13975;SDS011;7062;49.792;9.946;2022-12-24T08:40:07;12.63;;;2.73;;
13975;SDS011;7062;49.792;9.946;2022-12-24T08:42:33;9.30;;;1.97;;
13975;SDS011;7062;49.792;9.946;2022-12-24T08:44:58;10.43;;;2.77;;
13975;SDS011;7062;49.792;9.946;2022-12-24T08:47:24;11.90;;;2.63;;
13975;SDS011;7062;49.792;9.946;2022-12-24T08:49:50;13.60;;;2.83;;
13975;SDS011;7062;49.792;9.946;2022-12-24T08:52:16;10.73;;;2.10;;
13975;SDS011;7062;49.792;9.946;2022-12-24T08:54:41;11.37;;;2.30;;
13975;SDS011;7062;49.792;9.946;2022-12-24T08:57:07;14.63;;;4.73;;
13975;SDS011;7062;49.792;9.946;2022-12-24T08:59:32;12.93;;;2.90;;
13975;SDS011;7062;49.792;9.946;2022-12-24T09:01:58;8.87;;;2.70;;
13975;SDS011;7062;49.792;9.946;2022-12-24T09:04:24;8.77;;;2.60;;
13975;SDS011;7062;49.792;9.946;2022-12-24T09:06:49;9.57;;;1.80;;
13975;SDS011;7062;49.792;9.946;2022-12-24T09:09:15;13.40;;;4.00;;
13975;SDS011;7062;49.792;9.946;2022-12-24T09:11:41;17.13;;;2.77;;
13975;SDS011;7062;49.792;9.946;2022-12-24T09:14:07;15.93;;;4.03;;
13975;SDS011;7062;49.792;9.946;2022-12-24T09:16:32;10.67;;;2.33;;
13975;SDS011;7062;49.792;9.946;2022-12-24T09:18:58;12.77;;;2.97;;
13975;SDS011;7062;49.792;9.946;2022-12-24T09:21:24;13.40;;;3.30;;
13975;SDS011;7062;49.792;9.946;2022-12-24T09:23:49;13.00;;;3.53;;
13975;SDS011;7062;49.792;9.946;2022-12-24T09:26:16;10.10;;;3.60;;
13975;SDS011;7062;49.792;9.946;2022-12-24T09:28:47;15.63;;;3.77;;
13975;SDS011;7062;49.792;9.946;2022-12-24T09:31:14;18.50;;;3.97;;
13975;SDS011;7062;49.792;9.946;2022-12-24T09:33:41;16.07;;;3.00;;
13975;SDS011;7062;49.792;9.946;2022-12-24T09:36:08;8.93;;;2.43;;
13975;SDS011;7062;49.792;9.946;2022-12-24T09:38:35;13.67;;;3.13;;
13975;SDS011;7062;49.792;9.946;2022-12-24T09:41:09;10.87;;;2.70;;
13975;SDS011;7062;49.792;9.946;2022-12-24T09:43:59;12.50;;;4.30;;
13975;SDS011;7062;49.792;9.946;2022-12-24T09:46:52;14.60;;;3.63;;
13975;SDS011;7062;49.792;9.946;2022-12-24T09:49:20;13.80;;;3.40;;
13975;SDS011;7062;49.792;9.946;2022-12-24T09:51:50;17.53;;;2.90;;
13975;SDS011;7062;49.792;9.946;2022-12-24T09:54:30;9.63;;;2.77;;
13975;SDS011;7062;49.792;9.946;2022-12-24T09:57:00;9.27;;;3.00;;
13975;SDS011;7062;49.792;9.946;2022-12-24T09:59:41;9.70;;;2.43;;
13975;SDS011;7062;49.792;9.946;2022-12-24T10:02:09;10.57;;;2.90;;
13975;SDS011;7062;49.792;9.946;2022-12-24T10:04:38;17.90;;;2.90;;
13975;SDS011;7062;49.792;9.946;2022-12-24T10:12:31;14.47;;;2.93;;
13975;SDS011;7062;49.792;9.946;2022-12-24T10:20:21;11.97;;;2.93;;
13975;SDS011;7062;49.792;9.946;2022-12-24T10:28:50;16.40;;;2.97;;
13975;SDS011;7062;49.792;9.946;2022-12-24T10:31:11;19.27;;;2.63;;
13975;SDS011;7062;49.792;9.946;2022-12-24T10:33:42;12.50;;;2.57;;
13975;SDS011;7062;49.792;9.946;2022-12-24T10:36:23;15.43;;;3.23;;
13975;SDS011;7062;49.792;9.946;2022-12-24T10:38:52;11.10;;;3.10;;
13975;SDS011;7062;49.792;9.946;2022-12-24T10:41:18;15.10;;;3.23;;
13975;SDS011;7062;49.792;9.946;2022-12-24T10:43:44;12.67;;;3.07;;
13975;SDS011;7062;49.792;9.946;2022-12-24T10:46:21;8.53;;;3.33;;
13975;SDS011;7062;49.792;9.946;2022-12-24T10:48:52;10.77;;;3.47;;
13975;SDS011;7062;49.792;9.946;2022-12-24T10:53:55;14.80;;;3.13;;
13975;SDS011;7062;49.792;9.946;2022-12-24T10:56:26;15.93;;;2.67;;
13975;SDS011;7062;49.792;9.946;2022-12-24T10:58:52;10.27;;;3.33;;
13975;SDS011;7062;49.792;9.946;2022-12-24T11:01:19;12.30;;;2.73;;
13975;SDS011;7062;49.792;9.946;2022-12-24T11:04:05;18.23;;;3.40;;
13975;SDS011;7062;49.792;9.946;2022-12-24T11:06:31;12.60;;;3.50;;
13975;SDS011;7062;49.792;9.946;2022-12-24T11:09:11;17.77;;;3.30;;
13975;SDS011;7062;49.792;9.946;2022-12-24T11:11:44;18.30;;;5.33;;
13975;SDS011;7062;49.792;9.946;2022-12-24T11:14:13;18.77;;;4.10;;
13975;SDS011;7062;49.792;9.946;2022-12-24T11:16:47;14.07;;;3.30;;
13975;SDS011;7062;49.792;9.946;2022-12-24T11:19:19;9.00;;;1.97;;
13975;SDS011;7062;49.792;9.946;2022-12-24T11:22:14;11.40;;;2.43;;
13975;SDS011;7062;49.792;9.946;2022-12-24T11:25:06;16.33;;;2.50;;
13975;SDS011;7062;49.792;9.946;2022-12-24T11:27:44;11.77;;;3.00;;
13975;SDS011;7062;49.792;9.946;2022-12-24T11:32:44;15.90;;;3.90;;
13975;SDS011;7062;49.792;9.946;2022-12-24T11:35:38;20.20;;;3.57;;
13975;SDS011;7062;49.792;9.946;2022-12-24T11:38:11;8.70;;;3.20;;
13975;SDS011;7062;49.792;9.946;2022-12-24T11:43:46;15.30;;;4.47;;
13975;SDS011;7062;49.792;9.946;2022-12-24T11:46:33;17.47;;;4.33;;
13975;SDS011;7062;49.792;9.946;2022-12-24T11:51:36;10.27;;;2.70;;
13975;SDS011;7062;49.792;9.946;2022-12-24T11:54:22;12.97;;;2.10;;
13975;SDS011;7062;49.792;9.946;2022-12-24T11:56:54;18.57;;;4.60;;
13975;SDS011;7062;49.792;9.946;2022-12-24T11:59:23;13.10;;;2.83;;
13975;SDS011;7062;49.792;9.946;2022-12-24T12:05:32;12.87;;;3.07;;
13975;SDS011;7062;49.792;9.946;2022-12-24T12:10:55;21.77;;;4.27;;
13975;SDS011;7062;49.792;9.946;2022-12-24T12:13:28;11.63;;;2.57;;
13975;SDS011;7062;49.792;9.946;2022-12-24T12:16:10;10.97;;;2.93;;
13975;SDS011;7062;49.792;9.946;2022-12-24T12:18:45;9.90;;;2.50;;
13975;SDS011;7062;49.792;9.946;2022-12-24T12:21:34;9.23;;;2.20;;
13975;SDS011;7062;49.792;9.946;2022-12-24T12:24:05;10.23;;;1.93;;
13975;SDS011;7062;49.792;9.946;2022-12-24T12:26:42;13.10;;;3.30;;
13975;SDS011;7062;49.792;9.946;2022-12-24T12:34:19;12.80;;;3.23;;
13975;SDS011;7062;49.792;9.946;2022-12-24T12:36:56;9.93;;;2.47;;
13975;SDS011;7062;49.792;9.946;2022-12-24T12:39:25;16.73;;;2.63;;
13975;SDS011;7062;49.792;9.946;2022-12-24T12:41:53;11.87;;;2.17;;
13975;SDS011;7062;49.792;9.946;2022-12-24T12:47:44;13.10;;;2.67;;
13975;SDS011;7062;49.792;9.946;2022-12-24T12:50:30;14.20;;;3.30;;
13975;SDS011;7062;49.792;9.946;2022-12-24T12:58:44;17.00;;;3.33;;
13975;SDS011;7062;49.792;9.946;2022-12-24T13:04:25;14.50;;;3.50;;
13975;SDS011;7062;49.792;9.946;2022-12-24T13:07:23;17.73;;;3.13;;
13975;SDS011;7062;49.792;9.946;2022-12-24T13:15:53;14.07;;;2.90;;
13975;SDS011;7062;49.792;9.946;2022-12-24T13:21:16;14.07;;;3.47;;
13975;SDS011;7062;49.792;9.946;2022-12-24T13:23:44;10.53;;;3.27;;
13975;SDS011;7062;49.792;9.946;2022-12-24T13:26:11;10.17;;;2.20;;
13975;SDS011;7062;49.792;9.946;2022-12-24T13:28:38;10.33;;;2.60;;
13975;SDS011;7062;49.792;9.946;2022-12-24T13:36:12;19.80;;;2.73;;
13975;SDS011;7062;49.792;9.946;2022-12-24T13:38:56;11.47;;;2.97;;
13975;SDS011;7062;49.792;9.946;2022-12-24T13:49:27;10.90;;;2.53;;
13975;SDS011;7062;49.792;9.946;2022-12-24T13:54:35;14.03;;;2.77;;
13975;SDS011;7062;49.792;9.946;2022-12-24T13:57:21;9.30;;;3.50;;
13975;SDS011;7062;49.792;9.946;2022-12-24T13:59:52;16.00;;;3.43;;
13975;SDS011;7062;49.792;9.946;2022-12-24T14:02:34;16.33;;;3.97;;
13975;SDS011;7062;49.792;9.946;2022-12-24T14:05:05;10.67;;;3.37;;
13975;SDS011;7062;49.792;9.946;2022-12-24T14:07:33;8.57;;;2.57;;
13975;SDS011;7062;49.792;9.946;2022-12-24T14:10:00;11.57;;;2.77;;
13975;SDS011;7062;49.792;9.946;2022-12-24T14:12:44;13.53;;;2.97;;
13975;SDS011;7062;49.792;9.946;2022-12-24T14:18:18;14.10;;;3.60;;
13975;SDS011;7062;49.792;9.946;2022-12-24T14:20:55;13.60;;;2.87;;
13975;SDS011;7062;49.792;9.946;2022-12-24T14:23:29;12.00;;;3.60;;
13975;SDS011;7062;49.792;9.946;2022-12-24T14:26:15;11.80;;;3.33;;
13975;SDS011;7062;49.792;9.946;2022-12-24T14:29:26;11.20;;;2.73;;
13975;SDS011;7062;49.792;9.946;2022-12-24T14:31:48;16.63;;;3.90;;
13975;SDS011;7062;49.792;9.946;2022-12-24T14:34:16;13.10;;;3.77;;
13975;SDS011;7062;49.792;9.946;2022-12-24T14:36:41;13.87;;;3.30;;
13975;SDS011;7062;49.792;9.946;2022-12-24T14:39:10;11.53;;;3.47;;
13975;SDS011;7062;49.792;9.946;2022-12-24T14:45:03;15.77;;;3.87;;
13975;SDS011;7062;49.792;9.946;2022-12-24T14:56:30;17.27;;;3.70;;
13975;SDS011;7062;49.792;9.946;2022-12-24T14:58:55;11.60;;;3.97;;
13975;SDS011;7062;49.792;9.946;2022-12-24T15:01:28;13.03;;;3.63;;
13975;SDS011;7062;49.792;9.946;2022-12-24T15:04:04;15.83;;;4.77;;
13975;SDS011;7062;49.792;9.946;2022-12-24T15:06:33;17.90;;;3.90;;
13975;SDS011;7062;49.792;9.946;2022-12-24T15:09:04;13.30;;;3.10;;
13975;SDS011;7062;49.792;9.946;2022-12-24T15:11:35;15.33;;;3.60;;
13975;SDS011;7062;49.792;9.946;2022-12-24T15:14:01;14.10;;;3.70;;
13975;SDS011;7062;49.792;9.946;2022-12-24T15:16:31;9.20;;;3.20;;
13975;SDS011;7062;49.792;9.946;2022-12-24T15:19:02;12.23;;;3.67;;
13975;SDS011;7062;49.792;9.946;2022-12-24T15:21:32;9.47;;;3.63;;
13975;SDS011;7062;49.792;9.946;2022-12-24T15:24:05;9.90;;;3.87;;
13975;SDS011;7062;49.792;9.946;2022-12-24T15:26:48;14.90;;;5.33;;
13975;SDS011;7062;49.792;9.946;2022-12-24T15:29:19;21.03;;;3.70;;
13975;SDS011;7062;49.792;9.946;2022-12-24T15:31:57;12.53;;;3.00;;
13975;SDS011;7062;49.792;9.946;2022-12-24T15:37:13;21.53;;;5.77;;
13975;SDS011;7062;49.792;9.946;2022-12-24T15:39:43;12.77;;;4.30;;
13975;SDS011;7062;49.792;9.946;2022-12-24T15:42:16;17.23;;;4.17;;
13975;SDS011;7062;49.792;9.946;2022-12-24T15:45:41;16.03;;;5.57;;
13975;SDS011;7062;49.792;9.946;2022-12-24T15:47:41;12.17;;;3.53;;
13975;SDS011;7062;49.792;9.946;2022-12-24T15:52:40;14.20;;;4.60;;
13975;SDS011;7062;49.792;9.946;2022-12-24T15:55:26;16.07;;;7.30;;
13975;SDS011;7062;49.792;9.946;2022-12-24T15:57:55;17.00;;;5.30;;
13975;SDS011;7062;49.792;9.946;2022-12-24T16:00:24;19.97;;;6.60;;
13975;SDS011;7062;49.792;9.946;2022-12-24T16:03:08;19.57;;;6.87;;
13975;SDS011;7062;49.792;9.946;2022-12-24T16:05:35;14.27;;;6.30;;
13975;SDS011;7062;49.792;9.946;2022-12-24T16:10:38;14.53;;;5.63;;
13975;SDS011;7062;49.792;9.946;2022-12-24T16:13:19;11.90;;;4.77;;
13975;SDS011;7062;49.792;9.946;2022-12-24T16:16:11;17.43;;;5.60;;
13975;SDS011;7062;49.792;9.946;2022-12-24T16:21:34;16.03;;;6.37;;
13975;SDS011;7062;49.792;9.946;2022-12-24T16:24:22;14.57;;;4.87;;
13975;SDS011;7062;49.792;9.946;2022-12-24T16:26:50;11.37;;;4.73;;
13975;SDS011;7062;49.792;9.946;2022-12-24T16:29:16;13.60;;;4.67;;
13975;SDS011;7062;49.792;9.946;2022-12-24T16:34:16;12.60;;;6.17;;
13975;SDS011;7062;49.792;9.946;2022-12-24T16:36:43;16.30;;;5.37;;
13975;SDS011;7062;49.792;9.946;2022-12-24T16:39:13;16.73;;;5.63;;
13975;SDS011;7062;49.792;9.946;2022-12-24T16:41:59;13.83;;;5.50;;
13975;SDS011;7062;49.792;9.946;2022-12-24T16:44:44;16.47;;;7.80;;
13975;SDS011;7062;49.792;9.946;2022-12-24T16:47:12;17.80;;;7.97;;
13975;SDS011;7062;49.792;9.946;2022-12-24T16:49:49;18.03;;;8.27;;
13975;SDS011;7062;49.792;9.946;2022-12-24T16:52:17;16.33;;;8.00;;
13975;SDS011;7062;49.792;9.946;2022-12-24T16:54:46;18.33;;;9.07;;
13975;SDS011;7062;49.792;9.946;2022-12-24T16:57:12;19.27;;;9.07;;
13975;SDS011;7062;49.792;9.946;2022-12-24T16:59:37;16.40;;;9.23;;
13975;SDS011;7062;49.792;9.946;2022-12-24T17:02:03;17.13;;;8.67;;
13975;SDS011;7062;49.792;9.946;2022-12-24T17:04:30;15.87;;;7.37;;
13975;SDS011;7062;49.792;9.946;2022-12-24T17:06:58;20.23;;;8.83;;
13975;SDS011;7062;49.792;9.946;2022-12-24T17:09:24;15.47;;;9.80;;
13975;SDS011;7062;49.792;9.946;2022-12-24T17:11:50;19.13;;;8.70;;
13975;SDS011;7062;49.792;9.946;2022-12-24T17:14:15;17.00;;;8.03;;
13975;SDS011;7062;49.792;9.946;2022-12-24T17:16:41;13.90;;;7.70;;
13975;SDS011;7062;49.792;9.946;2022-12-24T17:19:07;15.03;;;8.10;;
13975;SDS011;7062;49.792;9.946;2022-12-24T17:21:33;15.27;;;6.17;;